sensor_id;sensor_type;location;lat;lon;timestamp;temperature;humidity
31725;DHT22;18306;40.960;14.836;2023-08-06T00:02:03;21.60;99.90
31725;DHT22;18306;40.960;14.836;2023-08-06T00:04:37;21.60;99.90
31725;DHT22;18306;40.960;14.836;2023-08-06T00:07:11;21.50;99.90
31725;DHT22;18306;40.960;14.836;2023-08-06T00:09:39;21.60;99.90
31725;DHT22;18306;40.960;14.836;2023-08-06T00:12:07;21.50;99.90
31725;DHT22;18306;40.960;14.836;2023-08-06T00:14:34;21.50;99.90
31725;DHT22;18306;40.960;14.836;2023-08-06T00:17:01;21.50;99.90
31725;DHT22;18306;40.960;14.836;2023-08-06T00:19:28;21.40;99.90
31725;DHT22;18306;40.960;14.836;2023-08-06T00:21:56;21.40;99.90
31725;DHT22;18306;40.960;14.836;2023-08-06T00:24:23;21.40;99.90
31725;DHT22;18306;40.960;14.836;2023-08-06T00:26:50;21.40;99.90
31725;DHT22;18306;40.960;14.836;2023-08-06T00:29:17;21.40;99.90
31725;DHT22;18306;40.960;14.836;2023-08-06T00:31:44;21.40;99.90
31725;DHT22;18306;40.960;14.836;2023-08-06T00:34:11;21.30;99.90
31725;DHT22;18306;40.960;14.836;2023-08-06T00:36:38;21.20;99.90
31725;DHT22;18306;40.960;14.836;2023-08-06T00:39:05;21.20;99.90
31725;DHT22;18306;40.960;14.836;2023-08-06T00:41:33;21.20;99.90
31725;DHT22;18306;40.960;14.836;2023-08-06T00:44:00;21.30;99.90
31725;DHT22;18306;40.960;14.836;2023-08-06T00:46:28;21.30;99.90
31725;DHT22;18306;40.960;14.836;2023-08-06T00:48:55;21.40;99.90
31725;DHT22;18306;40.960;14.836;2023-08-06T00:51:24;21.30;99.90
31725;DHT22;18306;40.960;14.836;2023-08-06T00:53:52;21.30;99.90
31725;DHT22;18306;40.960;14.836;2023-08-06T00:56:19;21.20;99.90
31725;DHT22;18306;40.960;14.836;2023-08-06T00:58:46;21.20;99.90
31725;DHT22;18306;40.960;14.836;2023-08-06T01:01:13;21.20;99.90
31725;DHT22;18306;40.960;14.836;2023-08-06T01:03:41;21.40;99.90
31725;DHT22;18306;40.960;14.836;2023-08-06T01:06:08;21.40;99.90
31725;DHT22;18306;40.960;14.836;2023-08-06T01:08:58;21.50;99.90
31725;DHT22;18306;40.960;14.836;2023-08-06T01:11:38;21.40;99.90
31725;DHT22;18306;40.960;14.836;2023-08-06T01:14:18;21.30;99.90
31725;DHT22;18306;40.960;14.836;2023-08-06T01:16:51;21.00;99.90
31725;DHT22;18306;40.960;14.836;2023-08-06T01:19:19;20.80;99.90
31725;DHT22;18306;40.960;14.836;2023-08-06T01:21:46;20.80;99.90
31725;DHT22;18306;40.960;14.836;2023-08-06T01:24:13;20.70;99.90
31725;DHT22;18306;40.960;14.836;2023-08-06T01:26:42;20.70;99.90
31725;DHT22;18306;40.960;14.836;2023-08-06T01:29:19;20.70;99.90
31725;DHT22;18306;40.960;14.836;2023-08-06T01:31:51;20.80;99.90
31725;DHT22;18306;40.960;14.836;2023-08-06T01:34:24;20.80;99.90
31725;DHT22;18306;40.960;14.836;2023-08-06T01:36:52;20.90;99.90
31725;DHT22;18306;40.960;14.836;2023-08-06T01:39:19;20.90;99.90
31725;DHT22;18306;40.960;14.836;2023-08-06T01:41:48;21.00;99.90
31725;DHT22;18306;40.960;14.836;2023-08-06T01:44:15;21.00;99.90
31725;DHT22;18306;40.960;14.836;2023-08-06T01:46:43;21.00;99.90
31725;DHT22;18306;40.960;14.836;2023-08-06T01:49:10;20.90;99.90
31725;DHT22;18306;40.960;14.836;2023-08-06T01:51:37;20.90;99.90
31725;DHT22;18306;40.960;14.836;2023-08-06T01:54:04;20.90;99.90
31725;DHT22;18306;40.960;14.836;2023-08-06T01:56:31;20.90;99.90
31725;DHT22;18306;40.960;14.836;2023-08-06T01:58:58;20.90;99.90
31725;DHT22;18306;40.960;14.836;2023-08-06T02:01:26;21.00;99.90
31725;DHT22;18306;40.960;14.836;2023-08-06T02:03:53;21.00;99.90
31725;DHT22;18306;40.960;14.836;2023-08-06T02:06:20;20.90;99.90
31725;DHT22;18306;40.960;14.836;2023-08-06T02:08:55;20.70;99.90
31725;DHT22;18306;40.960;14.836;2023-08-06T02:11:36;20.80;99.90
31725;DHT22;18306;40.960;14.836;2023-08-06T02:14:07;20.80;99.90
31725;DHT22;18306;40.960;14.836;2023-08-06T02:16:34;20.80;99.90
31725;DHT22;18306;40.960;14.836;2023-08-06T02:19:02;20.80;99.90
31725;DHT22;18306;40.960;14.836;2023-08-06T02:21:30;20.80;99.90
31725;DHT22;18306;40.960;14.836;2023-08-06T02:23:57;20.90;99.90
31725;DHT22;18306;40.960;14.836;2023-08-06T02:26:24;20.90;99.90
31725;DHT22;18306;40.960;14.836;2023-08-06T02:28:51;20.90;99.90
31725;DHT22;18306;40.960;14.836;2023-08-06T02:31:18;20.90;99.90
31725;DHT22;18306;40.960;14.836;2023-08-06T02:33:45;20.90;99.90
31725;DHT22;18306;40.960;14.836;2023-08-06T02:36:12;20.80;99.90
31725;DHT22;18306;40.960;14.836;2023-08-06T02:38:39;20.80;99.90
31725;DHT22;18306;40.960;14.836;2023-08-06T02:41:06;20.90;99.90
31725;DHT22;18306;40.960;14.836;2023-08-06T02:43:33;20.90;99.90
31725;DHT22;18306;40.960;14.836;2023-08-06T02:46:00;20.90;99.90
31725;DHT22;18306;40.960;14.836;2023-08-06T02:48:27;20.90;99.90
31725;DHT22;18306;40.960;14.836;2023-08-06T02:50:58;20.80;99.90
31725;DHT22;18306;40.960;14.836;2023-08-06T02:53:26;20.70;99.90
31725;DHT22;18306;40.960;14.836;2023-08-06T02:55:54;20.70;99.90
31725;DHT22;18306;40.960;14.836;2023-08-06T02:58:27;20.80;99.90
31725;DHT22;18306;40.960;14.836;2023-08-06T03:01:05;20.80;99.90
31725;DHT22;18306;40.960;14.836;2023-08-06T03:03:42;20.70;99.90
31725;DHT22;18306;40.960;14.836;2023-08-06T03:06:10;20.70;99.90
31725;DHT22;18306;40.960;14.836;2023-08-06T03:08:45;20.70;99.90
31725;DHT22;18306;40.960;14.836;2023-08-06T03:11:13;20.70;99.90
31725;DHT22;18306;40.960;14.836;2023-08-06T03:13:41;20.70;99.90
31725;DHT22;18306;40.960;14.836;2023-08-06T03:16:09;20.70;99.90
31725;DHT22;18306;40.960;14.836;2023-08-06T03:18:36;20.60;99.90
31725;DHT22;18306;40.960;14.836;2023-08-06T03:21:05;20.70;99.90
31725;DHT22;18306;40.960;14.836;2023-08-06T03:23:33;20.70;99.90
31725;DHT22;18306;40.960;14.836;2023-08-06T03:26:05;20.60;99.90
31725;DHT22;18306;40.960;14.836;2023-08-06T03:28:33;20.60;99.90
31725;DHT22;18306;40.960;14.836;2023-08-06T03:31:02;20.50;99.90
31725;DHT22;18306;40.960;14.836;2023-08-06T03:33:36;20.50;99.90
31725;DHT22;18306;40.960;14.836;2023-08-06T03:36:07;20.40;99.90
31725;DHT22;18306;40.960;14.836;2023-08-06T03:38:35;20.40;99.90
31725;DHT22;18306;40.960;14.836;2023-08-06T03:41:05;20.50;99.90
31725;DHT22;18306;40.960;14.836;2023-08-06T03:43:32;20.30;99.90
31725;DHT22;18306;40.960;14.836;2023-08-06T03:46:00;20.30;99.90
31725;DHT22;18306;40.960;14.836;2023-08-06T03:48:28;20.30;99.90
31725;DHT22;18306;40.960;14.836;2023-08-06T03:50:55;20.40;99.90
31725;DHT22;18306;40.960;14.836;2023-08-06T03:53:22;20.30;99.90
31725;DHT22;18306;40.960;14.836;2023-08-06T03:55:49;20.30;99.90
31725;DHT22;18306;40.960;14.836;2023-08-06T03:58:17;20.40;99.90
31725;DHT22;18306;40.960;14.836;2023-08-06T04:00:44;20.40;99.90
31725;DHT22;18306;40.960;14.836;2023-08-06T04:03:11;20.40;99.90
31725;DHT22;18306;40.960;14.836;2023-08-06T04:05:38;20.30;99.90
31725;DHT22;18306;40.960;14.836;2023-08-06T04:08:05;20.30;99.90
31725;DHT22;18306;40.960;14.836;2023-08-06T04:10:32;20.20;99.90
31725;DHT22;18306;40.960;14.836;2023-08-06T04:13:01;20.10;99.90
31725;DHT22;18306;40.960;14.836;2023-08-06T04:15:29;20.00;99.90
31725;DHT22;18306;40.960;14.836;2023-08-06T04:17:57;20.10;99.90
31725;DHT22;18306;40.960;14.836;2023-08-06T04:20:25;20.10;99.90
31725;DHT22;18306;40.960;14.836;2023-08-06T04:22:54;20.20;99.90
31725;DHT22;18306;40.960;14.836;2023-08-06T04:25:22;20.30;99.90
31725;DHT22;18306;40.960;14.836;2023-08-06T04:27:51;20.40;99.90
31725;DHT22;18306;40.960;14.836;2023-08-06T04:30:19;20.30;99.90
31725;DHT22;18306;40.960;14.836;2023-08-06T04:32:47;20.40;99.90
31725;DHT22;18306;40.960;14.836;2023-08-06T04:35:14;20.40;99.90
31725;DHT22;18306;40.960;14.836;2023-08-06T04:37:41;20.40;99.90
31725;DHT22;18306;40.960;14.836;2023-08-06T04:40:09;20.40;99.90
31725;DHT22;18306;40.960;14.836;2023-08-06T04:42:36;20.40;99.90
31725;DHT22;18306;40.960;14.836;2023-08-06T04:45:03;20.40;99.90
31725;DHT22;18306;40.960;14.836;2023-08-06T04:47:31;20.50;99.90
31725;DHT22;18306;40.960;14.836;2023-08-06T04:49:58;20.40;99.90
31725;DHT22;18306;40.960;14.836;2023-08-06T04:52:26;20.10;99.90
31725;DHT22;18306;40.960;14.836;2023-08-06T04:54:55;20.30;99.90
31725;DHT22;18306;40.960;14.836;2023-08-06T04:57:22;20.40;99.90
31725;DHT22;18306;40.960;14.836;2023-08-06T04:59:49;20.50;99.90
31725;DHT22;18306;40.960;14.836;2023-08-06T05:02:17;20.50;99.90
31725;DHT22;18306;40.960;14.836;2023-08-06T05:04:43;20.40;99.90
31725;DHT22;18306;40.960;14.836;2023-08-06T05:07:11;20.40;99.90
31725;DHT22;18306;40.960;14.836;2023-08-06T05:09:38;20.50;99.90
31725;DHT22;18306;40.960;14.836;2023-08-06T05:12:05;20.60;99.90
31725;DHT22;18306;40.960;14.836;2023-08-06T05:14:32;20.60;99.90
31725;DHT22;18306;40.960;14.836;2023-08-06T05:16:59;20.60;99.90
31725;DHT22;18306;40.960;14.836;2023-08-06T05:19:28;20.70;99.90
31725;DHT22;18306;40.960;14.836;2023-08-06T05:21:55;20.80;99.90
31725;DHT22;18306;40.960;14.836;2023-08-06T05:24:23;20.90;99.90
31725;DHT22;18306;40.960;14.836;2023-08-06T05:26:57;21.00;99.90
31725;DHT22;18306;40.960;14.836;2023-08-06T05:29:31;21.00;99.90
31725;DHT22;18306;40.960;14.836;2023-08-06T05:32:07;21.00;99.90
31725;DHT22;18306;40.960;14.836;2023-08-06T05:34:40;21.20;99.90
31725;DHT22;18306;40.960;14.836;2023-08-06T05:37:08;21.20;99.90
31725;DHT22;18306;40.960;14.836;2023-08-06T05:39:36;21.20;99.90
31725;DHT22;18306;40.960;14.836;2023-08-06T05:42:03;21.10;99.90
31725;DHT22;18306;40.960;14.836;2023-08-06T05:44:30;21.10;99.90
31725;DHT22;18306;40.960;14.836;2023-08-06T05:46:57;21.40;99.90
31725;DHT22;18306;40.960;14.836;2023-08-06T05:49:24;21.70;99.90
31725;DHT22;18306;40.960;14.836;2023-08-06T05:51:54;22.00;99.90
31725;DHT22;18306;40.960;14.836;2023-08-06T05:54:21;22.30;99.90
31725;DHT22;18306;40.960;14.836;2023-08-06T05:56:49;22.50;99.90
31725;DHT22;18306;40.960;14.836;2023-08-06T05:59:16;22.90;99.90
31725;DHT22;18306;40.960;14.836;2023-08-06T06:01:43;23.40;99.90
31725;DHT22;18306;40.960;14.836;2023-08-06T06:04:10;24.00;99.90
31725;DHT22;18306;40.960;14.836;2023-08-06T06:06:38;24.80;99.90
31725;DHT22;18306;40.960;14.836;2023-08-06T06:09:06;25.80;99.90
31725;DHT22;18306;40.960;14.836;2023-08-06T06:11:37;26.60;99.90
31725;DHT22;18306;40.960;14.836;2023-08-06T06:14:04;27.10;99.90
31725;DHT22;18306;40.960;14.836;2023-08-06T06:16:31;27.30;99.90
31725;DHT22;18306;40.960;14.836;2023-08-06T06:18:58;27.50;99.90
31725;DHT22;18306;40.960;14.836;2023-08-06T06:21:25;28.10;99.90
31725;DHT22;18306;40.960;14.836;2023-08-06T06:23:52;29.20;99.10
31725;DHT22;18306;40.960;14.836;2023-08-06T06:26:25;30.40;97.80
31725;DHT22;18306;40.960;14.836;2023-08-06T06:28:52;31.70;96.10
31725;DHT22;18306;40.960;14.836;2023-08-06T06:31:19;32.50;94.50
31725;DHT22;18306;40.960;14.836;2023-08-06T06:33:46;32.90;94.00
31725;DHT22;18306;40.960;14.836;2023-08-06T06:36:14;32.80;93.50
31725;DHT22;18306;40.960;14.836;2023-08-06T06:38:41;32.50;93.90
31725;DHT22;18306;40.960;14.836;2023-08-06T06:41:08;32.00;94.40
31725;DHT22;18306;40.960;14.836;2023-08-06T06:43:35;31.40;94.40
31725;DHT22;18306;40.960;14.836;2023-08-06T06:46:02;30.70;95.00
31725;DHT22;18306;40.960;14.836;2023-08-06T06:48:33;30.20;95.70
31725;DHT22;18306;40.960;14.836;2023-08-06T06:51:00;29.80;96.40
31725;DHT22;18306;40.960;14.836;2023-08-06T06:53:30;29.40;97.50
31725;DHT22;18306;40.960;14.836;2023-08-06T06:56:04;29.00;98.10
31725;DHT22;18306;40.960;14.836;2023-08-06T06:58:32;28.60;98.20
31725;DHT22;18306;40.960;14.836;2023-08-06T07:00:59;28.30;98.80
31725;DHT22;18306;40.960;14.836;2023-08-06T07:03:27;28.10;98.60
31725;DHT22;18306;40.960;14.836;2023-08-06T07:05:57;27.80;98.30
31725;DHT22;18306;40.960;14.836;2023-08-06T07:08:27;27.60;99.40
31725;DHT22;18306;40.960;14.836;2023-08-06T07:11:05;27.40;99.20
31725;DHT22;18306;40.960;14.836;2023-08-06T07:13:34;27.20;99.20
31725;DHT22;18306;40.960;14.836;2023-08-06T07:16:01;27.00;99.40
31725;DHT22;18306;40.960;14.836;2023-08-06T07:18:29;26.80;99.50
31725;DHT22;18306;40.960;14.836;2023-08-06T07:20:56;26.90;99.90
31725;DHT22;18306;40.960;14.836;2023-08-06T07:23:24;26.80;99.40
31725;DHT22;18306;40.960;14.836;2023-08-06T07:25:51;26.50;99.40
31725;DHT22;18306;40.960;14.836;2023-08-06T07:28:18;26.50;99.90
31725;DHT22;18306;40.960;14.836;2023-08-06T07:30:46;26.40;99.90
31725;DHT22;18306;40.960;14.836;2023-08-06T07:33:13;26.50;99.90
31725;DHT22;18306;40.960;14.836;2023-08-06T07:35:40;26.60;99.60
31725;DHT22;18306;40.960;14.836;2023-08-06T07:38:07;26.80;99.90
31725;DHT22;18306;40.960;14.836;2023-08-06T07:40:36;26.90;99.70
31725;DHT22;18306;40.960;14.836;2023-08-06T07:43:03;26.80;99.30
31725;DHT22;18306;40.960;14.836;2023-08-06T07:45:35;26.80;99.30
31725;DHT22;18306;40.960;14.836;2023-08-06T07:48:02;26.90;99.50
31725;DHT22;18306;40.960;14.836;2023-08-06T07:50:30;27.10;99.70
31725;DHT22;18306;40.960;14.836;2023-08-06T07:52:57;27.50;99.00
31725;DHT22;18306;40.960;14.836;2023-08-06T07:55:25;28.20;98.40
31725;DHT22;18306;40.960;14.836;2023-08-06T07:57:53;29.00;96.90
31725;DHT22;18306;40.960;14.836;2023-08-06T08:00:20;29.90;96.30
31725;DHT22;18306;40.960;14.836;2023-08-06T08:02:47;30.60;95.10
31725;DHT22;18306;40.960;14.836;2023-08-06T08:05:14;31.10;94.40
31725;DHT22;18306;40.960;14.836;2023-08-06T08:07:41;31.40;94.20
31725;DHT22;18306;40.960;14.836;2023-08-06T08:10:08;31.80;93.60
31725;DHT22;18306;40.960;14.836;2023-08-06T08:12:35;31.90;93.10
31725;DHT22;18306;40.960;14.836;2023-08-06T08:15:02;31.50;93.30
31725;DHT22;18306;40.960;14.836;2023-08-06T08:17:30;31.30;93.50
31725;DHT22;18306;40.960;14.836;2023-08-06T08:19:56;31.30;93.50
31725;DHT22;18306;40.960;14.836;2023-08-06T08:22:24;31.20;93.30
31725;DHT22;18306;40.960;14.836;2023-08-06T08:24:50;30.80;93.70
31725;DHT22;18306;40.960;14.836;2023-08-06T08:27:18;30.50;93.90
31725;DHT22;18306;40.960;14.836;2023-08-06T08:29:44;30.40;94.30
31725;DHT22;18306;40.960;14.836;2023-08-06T08:32:12;30.10;94.00
31725;DHT22;18306;40.960;14.836;2023-08-06T08:34:38;29.80;94.60
31725;DHT22;18306;40.960;14.836;2023-08-06T08:37:05;29.70;94.90
31725;DHT22;18306;40.960;14.836;2023-08-06T08:39:32;29.40;95.20
31725;DHT22;18306;40.960;14.836;2023-08-06T08:41:59;28.90;95.50
31725;DHT22;18306;40.960;14.836;2023-08-06T08:44:28;28.70;95.60
31725;DHT22;18306;40.960;14.836;2023-08-06T08:46:59;28.50;96.00
31725;DHT22;18306;40.960;14.836;2023-08-06T08:49:27;28.10;96.30
31725;DHT22;18306;40.960;14.836;2023-08-06T08:51:56;28.10;96.30
31725;DHT22;18306;40.960;14.836;2023-08-06T08:54:25;28.10;96.30
31725;DHT22;18306;40.960;14.836;2023-08-06T08:56:53;28.00;96.30
31725;DHT22;18306;40.960;14.836;2023-08-06T08:59:21;28.00;96.50
31725;DHT22;18306;40.960;14.836;2023-08-06T09:01:48;28.00;96.80
31725;DHT22;18306;40.960;14.836;2023-08-06T09:04:20;27.90;96.70
31725;DHT22;18306;40.960;14.836;2023-08-06T09:06:50;27.80;96.60
31725;DHT22;18306;40.960;14.836;2023-08-06T09:09:37;27.70;96.50
31725;DHT22;18306;40.960;14.836;2023-08-06T10:53:04;24.80;99.90
31725;DHT22;18306;40.960;14.836;2023-08-06T10:55:35;25.00;99.90
31725;DHT22;18306;40.960;14.836;2023-08-06T10:58:05;25.70;99.90
31725;DHT22;18306;40.960;14.836;2023-08-06T11:00:32;26.50;99.90
31725;DHT22;18306;40.960;14.836;2023-08-06T11:02:59;27.10;99.90
31725;DHT22;18306;40.960;14.836;2023-08-06T11:05:27;27.50;99.90
31725;DHT22;18306;40.960;14.836;2023-08-06T11:07:54;27.80;99.90
31725;DHT22;18306;40.960;14.836;2023-08-06T11:10:22;28.20;99.90
31725;DHT22;18306;40.960;14.836;2023-08-06T11:12:49;28.50;99.90
31725;DHT22;18306;40.960;14.836;2023-08-06T11:15:16;28.80;99.90
31725;DHT22;18306;40.960;14.836;2023-08-06T11:17:43;28.90;99.90
31725;DHT22;18306;40.960;14.836;2023-08-06T11:20:11;28.80;99.90
31725;DHT22;18306;40.960;14.836;2023-08-06T11:22:38;28.80;99.90
31725;DHT22;18306;40.960;14.836;2023-08-06T11:25:07;28.70;99.90
31725;DHT22;18306;40.960;14.836;2023-08-06T11:27:35;28.70;99.90
31725;DHT22;18306;40.960;14.836;2023-08-06T11:30:03;28.50;99.90
31725;DHT22;18306;40.960;14.836;2023-08-06T11:32:44;28.30;99.90
31725;DHT22;18306;40.960;14.836;2023-08-06T11:35:16;28.10;99.90
31725;DHT22;18306;40.960;14.836;2023-08-06T11:37:46;28.10;99.90
31725;DHT22;18306;40.960;14.836;2023-08-06T11:40:15;28.20;99.90
31725;DHT22;18306;40.960;14.836;2023-08-06T11:42:42;28.00;99.60
31725;DHT22;18306;40.960;14.836;2023-08-06T11:45:09;28.00;99.70
31725;DHT22;18306;40.960;14.836;2023-08-06T11:47:38;28.10;99.80
31725;DHT22;18306;40.960;14.836;2023-08-06T11:50:08;28.30;99.90
31725;DHT22;18306;40.960;14.836;2023-08-06T11:52:39;28.50;99.90
31725;DHT22;18306;40.960;14.836;2023-08-06T11:55:08;28.70;99.30
31725;DHT22;18306;40.960;14.836;2023-08-06T11:57:45;28.90;99.00
31725;DHT22;18306;40.960;14.836;2023-08-06T12:00:13;28.80;98.50
31725;DHT22;18306;40.960;14.836;2023-08-06T12:02:45;28.70;99.20
31725;DHT22;18306;40.960;14.836;2023-08-06T12:05:13;28.40;99.70
31725;DHT22;18306;40.960;14.836;2023-08-06T12:07:47;28.30;99.90
31725;DHT22;18306;40.960;14.836;2023-08-06T12:10:19;28.20;99.90
31725;DHT22;18306;40.960;14.836;2023-08-06T12:12:48;28.30;99.90
31725;DHT22;18306;40.960;14.836;2023-08-06T12:15:18;28.30;99.70
31725;DHT22;18306;40.960;14.836;2023-08-06T12:17:46;28.10;98.20
31725;DHT22;18306;40.960;14.836;2023-08-06T12:20:14;28.00;98.50
31725;DHT22;18306;40.960;14.836;2023-08-06T12:22:43;27.90;98.90
31725;DHT22;18306;40.960;14.836;2023-08-06T12:25:13;27.90;99.20
31725;DHT22;18306;40.960;14.836;2023-08-06T12:27:44;27.70;98.70
31725;DHT22;18306;40.960;14.836;2023-08-06T12:30:14;27.70;98.60
31725;DHT22;18306;40.960;14.836;2023-08-06T12:32:41;27.70;98.30
31725;DHT22;18306;40.960;14.836;2023-08-06T12:35:09;27.70;99.10
31725;DHT22;18306;40.960;14.836;2023-08-06T12:37:37;27.70;99.20
31725;DHT22;18306;40.960;14.836;2023-08-06T12:40:07;27.80;99.50
31725;DHT22;18306;40.960;14.836;2023-08-06T12:42:34;27.90;99.30
31725;DHT22;18306;40.960;14.836;2023-08-06T12:45:06;27.70;99.20
31725;DHT22;18306;40.960;14.836;2023-08-06T12:47:43;27.50;99.00
31725;DHT22;18306;40.960;14.836;2023-08-06T12:50:30;27.40;99.70
31725;DHT22;18306;40.960;14.836;2023-08-06T12:52:59;27.40;99.60
31725;DHT22;18306;40.960;14.836;2023-08-06T12:55:26;27.40;99.80
31725;DHT22;18306;40.960;14.836;2023-08-06T12:57:53;27.50;99.70
31725;DHT22;18306;40.960;14.836;2023-08-06T13:00:20;27.50;99.90
31725;DHT22;18306;40.960;14.836;2023-08-06T13:02:48;27.70;99.60
31725;DHT22;18306;40.960;14.836;2023-08-06T13:05:15;27.80;99.40
31725;DHT22;18306;40.960;14.836;2023-08-06T13:07:42;27.90;99.30
31725;DHT22;18306;40.960;14.836;2023-08-06T13:10:09;27.90;98.80
31725;DHT22;18306;40.960;14.836;2023-08-06T13:12:37;27.80;98.60
31725;DHT22;18306;40.960;14.836;2023-08-06T13:15:06;27.90;98.60
31725;DHT22;18306;40.960;14.836;2023-08-06T13:17:34;28.00;98.40
31725;DHT22;18306;40.960;14.836;2023-08-06T13:20:01;27.90;98.40
31725;DHT22;18306;40.960;14.836;2023-08-06T13:22:32;27.80;98.20
31725;DHT22;18306;40.960;14.836;2023-08-06T13:25:06;27.70;98.60
31725;DHT22;18306;40.960;14.836;2023-08-06T13:27:33;27.80;98.50
31725;DHT22;18306;40.960;14.836;2023-08-06T13:30:05;27.80;98.00
31725;DHT22;18306;40.960;14.836;2023-08-06T13:32:32;27.90;97.60
31725;DHT22;18306;40.960;14.836;2023-08-06T13:35:21;27.90;97.30
31725;DHT22;18306;40.960;14.836;2023-08-06T13:37:49;27.80;97.80
31725;DHT22;18306;40.960;14.836;2023-08-06T13:40:16;27.80;98.40
31725;DHT22;18306;40.960;14.836;2023-08-06T13:42:47;27.80;98.30
31725;DHT22;18306;40.960;14.836;2023-08-06T13:45:14;27.80;97.70
31725;DHT22;18306;40.960;14.836;2023-08-06T13:47:42;27.80;97.40
31725;DHT22;18306;40.960;14.836;2023-08-06T13:50:13;27.80;97.70
31725;DHT22;18306;40.960;14.836;2023-08-06T13:52:41;27.80;97.80
31725;DHT22;18306;40.960;14.836;2023-08-06T13:55:09;27.80;97.90
31725;DHT22;18306;40.960;14.836;2023-08-06T13:57:36;27.90;97.60
31725;DHT22;18306;40.960;14.836;2023-08-06T14:00:08;27.90;97.20
31725;DHT22;18306;40.960;14.836;2023-08-06T14:02:39;27.80;96.80
31725;DHT22;18306;40.960;14.836;2023-08-06T14:05:07;27.90;97.20
31725;DHT22;18306;40.960;14.836;2023-08-06T14:07:34;27.70;97.00
31725;DHT22;18306;40.960;14.836;2023-08-06T14:10:02;27.90;97.50
31725;DHT22;18306;40.960;14.836;2023-08-06T14:12:31;28.00;97.10
31725;DHT22;18306;40.960;14.836;2023-08-06T14:14:58;28.10;97.10
31725;DHT22;18306;40.960;14.836;2023-08-06T14:17:26;28.30;96.80
31725;DHT22;18306;40.960;14.836;2023-08-06T14:19:53;28.30;96.70
31725;DHT22;18306;40.960;14.836;2023-08-06T14:22:20;28.30;96.60
31725;DHT22;18306;40.960;14.836;2023-08-06T14:24:47;28.30;96.50
31725;DHT22;18306;40.960;14.836;2023-08-06T14:27:18;28.10;96.40
31725;DHT22;18306;40.960;14.836;2023-08-06T14:29:46;28.20;96.60
31725;DHT22;18306;40.960;14.836;2023-08-06T14:32:15;28.20;96.40
31725;DHT22;18306;40.960;14.836;2023-08-06T14:34:44;28.20;96.50
31725;DHT22;18306;40.960;14.836;2023-08-06T14:37:12;28.40;96.30
31725;DHT22;18306;40.960;14.836;2023-08-06T14:39:40;28.40;95.40
31725;DHT22;18306;40.960;14.836;2023-08-06T14:42:07;28.50;95.40
31725;DHT22;18306;40.960;14.836;2023-08-06T14:44:35;28.50;95.10
31725;DHT22;18306;40.960;14.836;2023-08-06T14:47:04;28.40;95.00
31725;DHT22;18306;40.960;14.836;2023-08-06T14:49:31;28.40;94.80
31725;DHT22;18306;40.960;14.836;2023-08-06T14:51:58;28.50;94.70
31725;DHT22;18306;40.960;14.836;2023-08-06T14:54:27;28.60;94.80
31725;DHT22;18306;40.960;14.836;2023-08-06T14:56:57;28.70;94.80
31725;DHT22;18306;40.960;14.836;2023-08-06T14:59:27;28.70;94.80
31725;DHT22;18306;40.960;14.836;2023-08-06T15:01:56;28.60;94.30
31725;DHT22;18306;40.960;14.836;2023-08-06T15:04:23;28.80;94.40
31725;DHT22;18306;40.960;14.836;2023-08-06T15:06:54;28.80;94.10
31725;DHT22;18306;40.960;14.836;2023-08-06T15:09:25;29.00;93.90
31725;DHT22;18306;40.960;14.836;2023-08-06T15:11:55;29.20;93.70
31725;DHT22;18306;40.960;14.836;2023-08-06T15:14:22;29.20;92.70
31725;DHT22;18306;40.960;14.836;2023-08-06T15:16:49;29.30;93.00
31725;DHT22;18306;40.960;14.836;2023-08-06T15:19:18;29.00;92.90
31725;DHT22;18306;40.960;14.836;2023-08-06T15:21:47;28.90;93.40
31725;DHT22;18306;40.960;14.836;2023-08-06T15:24:29;28.70;93.70
31725;DHT22;18306;40.960;14.836;2023-08-06T15:26:56;28.50;94.20
31725;DHT22;18306;40.960;14.836;2023-08-06T15:29:27;28.40;94.10
31725;DHT22;18306;40.960;14.836;2023-08-06T15:31:54;28.50;94.40
31725;DHT22;18306;40.960;14.836;2023-08-06T15:34:22;28.60;94.40
31725;DHT22;18306;40.960;14.836;2023-08-06T15:36:50;28.50;94.10
31725;DHT22;18306;40.960;14.836;2023-08-06T15:39:20;28.50;94.00
31725;DHT22;18306;40.960;14.836;2023-08-06T15:41:53;28.60;94.10
31725;DHT22;18306;40.960;14.836;2023-08-06T15:44:20;28.60;94.20
31725;DHT22;18306;40.960;14.836;2023-08-06T15:46:48;28.40;94.00
31725;DHT22;18306;40.960;14.836;2023-08-06T15:49:20;28.30;94.30
31725;DHT22;18306;40.960;14.836;2023-08-06T15:51:49;28.30;94.30
31725;DHT22;18306;40.960;14.836;2023-08-06T15:54:16;28.30;93.90
31725;DHT22;18306;40.960;14.836;2023-08-06T15:56:43;28.10;93.70
31725;DHT22;18306;40.960;14.836;2023-08-06T15:59:32;28.00;94.20
31725;DHT22;18306;40.960;14.836;2023-08-06T16:02:00;27.70;94.00
31725;DHT22;18306;40.960;14.836;2023-08-06T16:04:30;27.70;94.50
31725;DHT22;18306;40.960;14.836;2023-08-06T16:06:58;27.60;94.30
31725;DHT22;18306;40.960;14.836;2023-08-06T16:09:27;27.50;94.40
31725;DHT22;18306;40.960;14.836;2023-08-06T16:11:54;27.50;94.70
31725;DHT22;18306;40.960;14.836;2023-08-06T16:14:21;27.20;94.80
31725;DHT22;18306;40.960;14.836;2023-08-06T16:16:48;27.10;94.90
31725;DHT22;18306;40.960;14.836;2023-08-06T16:19:15;27.20;95.20
31725;DHT22;18306;40.960;14.836;2023-08-06T16:21:43;27.20;95.20
31725;DHT22;18306;40.960;14.836;2023-08-06T16:24:11;27.20;95.30
31725;DHT22;18306;40.960;14.836;2023-08-06T16:26:38;27.20;95.30
31725;DHT22;18306;40.960;14.836;2023-08-06T16:29:05;27.00;95.40
31725;DHT22;18306;40.960;14.836;2023-08-06T16:31:32;27.00;95.40
31725;DHT22;18306;40.960;14.836;2023-08-06T16:34:03;26.80;95.50
31725;DHT22;18306;40.960;14.836;2023-08-06T16:36:30;26.90;95.60
31725;DHT22;18306;40.960;14.836;2023-08-06T16:39:01;26.80;95.50
31725;DHT22;18306;40.960;14.836;2023-08-06T16:41:29;26.70;95.80
31725;DHT22;18306;40.960;14.836;2023-08-06T16:43:56;26.70;95.90
31725;DHT22;18306;40.960;14.836;2023-08-06T16:46:23;26.60;96.40
31725;DHT22;18306;40.960;14.836;2023-08-06T16:48:51;26.60;96.00
31725;DHT22;18306;40.960;14.836;2023-08-06T16:51:21;26.60;96.00
31725;DHT22;18306;40.960;14.836;2023-08-06T16:53:51;26.70;96.20
31725;DHT22;18306;40.960;14.836;2023-08-06T16:56:19;26.50;96.40
31725;DHT22;18306;40.960;14.836;2023-08-06T16:58:46;26.50;96.50
31725;DHT22;18306;40.960;14.836;2023-08-06T17:01:14;26.40;96.50
31725;DHT22;18306;40.960;14.836;2023-08-06T17:03:51;26.30;97.10
31725;DHT22;18306;40.960;14.836;2023-08-06T17:06:30;26.20;97.20